Time;durP1;ratioP1;P1;durP2;ratioP2;P2;SDS_P1;SDS_P2;PMS_P1;PMS_P2;Temp;Humidity;BMP_temperature;BMP_pressure;BME280_temperature;BME280_humidity;BME280_pressure;Samples;Min_cycle;Max_cycle;Signal;HPM_P1;HPM_P2
2024/03/07 00:01:48;;;;;;;28.23;19.10;;;1.70;79.20;;;0.86;84.15;98529.72;5052743;28;20465;-74
2024/03/07 00:04:15;;;;;;;29.20;19.27;;;1.70;79.40;;;0.94;84.24;98537.81;5039600;28;21127;-74
2024/03/07 00:06:42;;;;;;;30.50;20.20;;;1.80;79.60;;;0.88;83.87;98525.91;5058393;28;20488;-78
2024/03/07 00:09:11;;;;;;;29.03;19.30;;;1.70;79.30;;;0.78;84.22;98533.06;5050574;28;20564;-76
2024/03/07 00:11:38;;;;;;;28.10;20.03;;;1.60;79.30;;;0.63;84.81;98524.66;5049745;28;20488;-76
2024/03/07 00:14:07;;;;;;;26.83;18.27;;;1.50;79.50;;;0.62;85.47;98529.16;5048845;28;20484;-75
2024/03/07 00:16:35;;;;;;;31.37;18.40;;;1.40;79.90;;;0.54;85.36;98532.50;5057840;28;20453;-74
2024/03/07 00:19:02;;;;;;;28.50;18.93;;;1.40;80.20;;;0.51;85.57;98531.94;5053048;28;20543;-77
2024/03/07 00:21:30;;;;;;;28.03;18.77;;;1.40;80.40;;;0.50;85.66;98533.75;5057224;28;20447;-76
2024/03/07 00:23:59;;;;;;;28.30;17.73;;;1.40;80.40;;;0.47;85.35;98539.34;5056980;28;20461;-72
2024/03/07 00:26:26;;;;;;;33.13;18.37;;;1.40;80.30;;;0.51;84.89;98527.44;5063108;28;20448;-75
2024/03/07 00:28:54;;;;;;;25.87;17.47;;;1.30;80.30;;;0.46;85.28;98528.84;5053082;28;20458;-75
2024/03/07 00:31:22;;;;;;;24.10;17.23;;;1.30;80.40;;;0.46;85.32;98529.69;5052341;28;20491;-74
2024/03/07 00:33:49;;;;;;;26.00;17.10;;;1.30;80.50;;;0.39;85.53;98531.22;5052071;28;20557;-76
2024/03/07 00:36:17;;;;;;;28.20;17.17;;;1.20;80.60;;;0.32;85.59;98533.59;5060120;28;20508;-76
2024/03/07 00:38:44;;;;;;;22.50;15.97;;;1.20;80.60;;;0.33;85.53;98524.63;5051777;28;20457;-73
2024/03/07 00:41:11;;;;;;;24.30;16.83;;;1.20;80.60;;;0.30;85.61;98524.06;5056338;28;20555;-74
2024/03/07 00:43:38;;;;;;;23.47;16.17;;;1.20;80.60;;;0.34;85.66;98530.78;5054491;28;20475;-74
2024/03/07 00:46:06;;;;;;;25.30;16.40;;;1.20;80.50;;;0.26;85.60;98512.84;5063066;28;20963;-73
2024/03/07 00:48:35;;;;;;;23.43;15.73;;;1.20;80.60;;;0.30;85.46;98518.75;5053719;28;20552;-74
2024/03/07 00:51:04;;;;;;;20.93;14.90;;;1.20;80.60;;;0.26;85.60;98519.03;5063256;28;20560;-76
2024/03/07 00:53:31;;;;;;;20.73;14.87;;;1.10;80.60;;;0.22;85.65;98499.00;5060238;28;20827;-75
2024/03/07 00:55:58;;;;;;;20.80;14.10;;;1.00;81.00;;;0.41;84.99;98494.72;5065676;28;20509;-73
2024/03/07 00:58:34;;;;;;;24.63;14.63;;;1.10;81.50;;;0.55;84.03;98501.41;5068889;28;20457;-75
2024/03/07 01:01:02;;;;;;;20.97;14.93;;;1.30;80.80;;;0.33;84.62;98499.88;5070734;28;20459;-74
2024/03/07 01:03:30;;;;;;;25.77;16.37;;;1.30;80.20;;;0.38;85.43;98495.81;5054828;28;20465;-74
2024/03/07 01:05:59;;;;;;;22.33;13.97;;;1.30;80.50;;;0.32;85.05;98496.38;5064424;28;20507;-75
2024/03/07 01:08:27;;;;;;;27.50;13.87;;;1.40;80.50;;;0.52;84.34;98497.22;5063321;28;20496;-74
2024/03/07 01:10:54;;;;;;;27.10;15.93;;;1.40;80.20;;;0.66;84.14;98495.13;5057317;28;21029;-75
2024/03/07 01:13:22;;;;;;;21.37;14.73;;;1.50;80.30;;;0.71;83.87;98492.91;5079164;28;20504;-75
2024/03/07 01:15:49;;;;;;;21.20;14.33;;;1.60;80.00;;;0.82;82.86;98487.41;5075478;28;21096;-75
2024/03/07 01:18:17;;;;;;;19.60;14.37;;;1.70;79.60;;;0.95;81.95;98487.13;5072177;28;20504;-75
2024/03/07 01:20:46;;;;;;;20.40;13.30;;;1.80;79.40;;;1.02;81.88;98486.53;5057942;28;20457;-72
2024/03/07 01:23:14;;;;;;;21.23;14.97;;;1.90;79.10;;;1.09;81.41;98488.50;5051253;28;21065;-76
2024/03/07 01:25:42;;;;;;;19.30;14.27;;;2.00;78.80;;;0.60;81.29;98423.88;5057769;28;20451;-78
2024/03/07 01:28:12;;;;;;;20.60;13.90;;;2.00;78.40;;;0.56;81.60;98402.91;5060997;28;20452;-77
2024/03/07 01:30:39;;;;;;;21.33;14.43;;;2.00;78.40;;;1.41;81.64;98481.97;5040605;28;21136;-76
2024/03/07 01:33:08;;;;;;;22.17;14.53;;;2.10;79.00;;;1.23;80.59;98478.38;5078543;28;20487;-75
2024/03/07 01:35:35;;;;;;;21.73;13.63;;;2.20;78.20;;;1.16;80.73;98482.63;5063721;28;20555;-75
2024/03/07 01:38:04;;;;;;;18.93;13.90;;;2.10;78.00;;;1.38;81.22;98471.59;5057466;28;20457;-73
2024/03/07 01:40:32;;;;;;;18.87;13.13;;;2.20;78.50;;;1.50;80.14;98472.25;5062027;28;20972;-75
2024/03/07 01:42:59;;;;;;;17.90;13.57;;;2.30;78.10;;;1.36;79.59;98472.72;5057641;28;20515;-73
2024/03/07 01:45:27;;;;;;;19.53;13.50;;;2.30;77.70;;;1.52;79.14;98466.78;5053082;28;20909;-72
2024/03/07 01:47:56;;;;;;;19.80;13.43;;;2.30;78.10;;;1.49;78.93;98467.09;5042564;28;20459;-76
2024/03/07 01:50:24;;;;;;;18.03;12.60;;;2.30;77.50;;;1.44;78.85;98469.34;5056851;28;20560;-74
2024/03/07 01:52:55;;;;;;;20.10;12.77;;;2.30;77.20;;;1.58;79.21;98466.19;5053244;28;21024;-73
2024/03/07 01:55:24;;;;;;;18.70;12.43;;;2.40;77.60;;;1.33;78.96;98468.53;5054615;28;20475;-78
2024/03/07 01:58:01;;;;;;;16.00;11.57;;;2.30;77.00;;;1.31;79.01;98470.53;5059887;28;20910;-75
2024/03/07 02:00:30;;;;;;;17.03;12.10;;;2.20;76.90;;;1.32;79.15;98460.69;5055620;28;20823;-77
2024/03/07 02:02:58;;;;;;;17.60;11.50;;;2.20;77.10;;;1.26;79.51;98457.63;5051950;28;20472;-76
2024/03/07 02:05:25;;;;;;;17.23;12.10;;;2.20;77.20;;;1.37;78.82;98456.63;5052889;28;20544;-75
2024/03/07 02:07:53;;;;;;;16.60;11.60;;;2.20;77.20;;;1.39;78.51;98449.31;5040785;28;20550;-76
2024/03/07 02:10:21;;;;;;;15.63;11.90;;;2.30;77.20;;;1.29;78.85;98450.34;5054556;28;20554;-74
2024/03/07 02:12:48;;;;;;;19.13;12.63;;;2.20;76.90;;;1.32;79.50;98445.56;5063144;28;20499;-73
2024/03/07 02:15:17;;;;;;;15.57;11.57;;;2.20;77.10;;;1.55;78.45;98451.38;5053558;28;21015;-74
2024/03/07 02:17:45;;;;;;;15.67;11.67;;;2.30;77.30;;;1.53;78.27;98448.00;5052172;28;20453;-74
2024/03/07 02:20:13;;;;;;;17.73;12.47;;;2.30;77.10;;;1.37;78.98;98442.47;5060578;28;20451;-76
2024/03/07 02:22:42;;;;;;;16.50;12.30;;;2.30;77.00;;;1.53;78.58;98441.84;5053954;28;20510;-75
2024/03/07 02:25:11;;;;;;;18.77;10.40;;;2.30;77.00;;;1.48;78.33;98438.78;5053275;28;20472;-76
2024/03/07 02:27:38;;;;;;;16.80;12.67;;;2.40;76.80;;;1.52;78.68;98438.34;5057481;28;20464;-74
2024/03/07 02:30:08;;;;;;;17.63;11.97;;;2.40;77.00;;;1.53;78.67;98436.50;5051837;28;20449;-74
2024/03/07 02:32:37;;;;;;;18.03;11.90;;;2.40;77.10;;;1.36;78.76;98441.63;5059256;28;20456;-77
2024/03/07 02:35:05;;;;;;;19.83;12.93;;;2.30;76.70;;;1.42;79.01;98433.03;5047153;28;20958;-76
2024/03/07 02:37:32;;;;;;;16.43;12.00;;;2.30;77.00;;;1.67;77.97;98436.03;5054972;28;20474;-76
2024/03/07 02:40:02;;;;;;;15.57;11.13;;;2.40;76.80;;;1.64;77.81;98430.13;5054911;28;20571;-73
2024/03/07 02:42:29;;;;;;;15.33;11.10;;;2.40;76.80;;;1.68;77.30;98424.38;5056257;28;21246;-76
2024/03/07 02:44:57;;;;;;;17.33;12.10;;;2.50;76.60;;;1.74;77.13;98425.59;5056190;28;20547;-77
2024/03/07 02:47:25;;;;;;;13.47;10.93;;;2.60;76.50;;;1.73;77.62;98431.94;5059211;28;20457;-73
2024/03/07 02:49:52;;;;;;;15.30;11.17;;;2.50;76.60;;;1.65;77.67;98418.50;5056304;28;20475;-75
2024/03/07 02:52:20;;;;;;;13.60;10.63;;;2.50;76.50;;;1.42;77.61;98414.41;5069779;28;20486;-76
2024/03/07 02:54:48;;;;;;;19.53;12.53;;;2.50;76.20;;;1.53;77.94;98415.19;5062633;28;20540;-74
2024/03/07 02:57:16;;;;;;;14.47;11.27;;;2.40;76.60;;;1.59;77.21;98414.59;5063983;28;20458;-76
2024/03/07 02:59:43;;;;;;;13.13;10.40;;;2.50;76.30;;;1.72;76.84;98416.06;5061299;28;20464;-77
2024/03/07 03:02:12;;;;;;;11.70;10.30;;;2.50;76.30;;;1.58;76.77;98420.91;5062823;28;20468;-76
2024/03/07 03:04:39;;;;;;;15.40;11.67;;;2.50;75.90;;;1.62;76.63;98414.31;5069405;28;20451;-76
2024/03/07 03:07:08;;;;;;;14.37;11.10;;;2.50;76.10;;;1.57;77.03;98413.91;5066538;28;20460;-74
2024/03/07 03:09:39;;;;;;;14.23;10.30;;;2.50;76.00;;;1.47;77.34;98416.63;5067158;28;20458;-74
2024/03/07 03:12:08;;;;;;;15.30;10.33;;;2.40;76.10;;;1.51;77.13;98417.19;5072001;28;20981;-74
2024/03/07 03:14:37;;;;;;;15.03;10.67;;;2.40;75.90;;;1.38;77.81;98422.84;5074452;28;20471;-74
2024/03/07 03:17:05;;;;;;;14.90;10.57;;;2.30;76.00;;;1.33;77.34;98419.78;5067004;28;20460;-74
2024/03/07 03:19:32;;;;;;;13.03;9.50;;;2.30;75.80;;;1.51;77.23;98419.84;5038230;28;20843;-73
2024/03/07 03:22:00;;;;;;;17.00;11.60;;;2.40;75.80;;;1.47;77.31;98418.47;5059251;28;20984;-74
2024/03/07 03:24:28;;;;;;;18.10;10.93;;;2.40;75.90;;;1.44;76.90;98416.06;5067572;28;20474;-74
2024/03/07 03:26:55;;;;;;;15.40;10.40;;;2.40;75.60;;;1.44;76.50;98424.06;5077331;28;20545;-74
2024/03/07 03:29:22;;;;;;;15.93;11.10;;;2.40;75.70;;;1.51;76.63;98423.31;5067742;28;20456;-76
2024/03/07 03:31:52;;;;;;;14.30;10.17;;;2.40;75.60;;;1.38;76.82;98422.84;5056389;28;20477;-76
2024/03/07 03:34:20;;;;;;;13.60;10.77;;;2.40;75.20;;;1.52;76.36;98418.84;5063657;28;20500;-75
2024/03/07 03:36:49;;;;;;;15.67;11.53;;;2.40;75.50;;;1.57;76.27;98424.56;5070671;28;20466;-75
2024/03/07 03:39:20;;;;;;;15.43;10.27;;;2.40;75.20;;;1.46;75.49;98416.78;5058689;28;20459;-75
2024/03/07 03:41:47;;;;;;;16.67;11.90;;;2.50;75.00;;;1.46;75.61;98414.13;5062976;28;20443;-73
2024/03/07 03:44:15;;;;;;;14.83;10.70;;;2.40;74.90;;;1.53;75.27;98413.38;5059745;28;21034;-75
2024/03/07 03:46:44;;;;;;;15.33;10.60;;;2.40;74.80;;;1.41;75.70;98418.03;5060790;28;20517;-75
2024/03/07 03:49:13;;;;;;;18.00;12.37;;;2.40;74.80;;;1.32;75.70;98402.13;5059194;28;20543;-75
2024/03/07 03:51:41;;;;;;;16.03;11.27;;;2.30;74.70;;;1.25;76.41;98418.69;5054753;28;20476;-75
2024/03/07 03:54:08;;;;;;;16.30;11.17;;;2.20;75.00;;;1.18;76.26;98417.59;5055656;28;20485;-75
2024/03/07 03:56:37;;;;;;;15.77;11.43;;;2.20;75.00;;;1.12;76.56;98416.34;5069845;28;20443;-75
2024/03/07 03:59:06;;;;;;;15.53;11.40;;;2.10;75.00;;;1.13;76.77;98409.19;5060957;28;20458;-75
2024/03/07 04:01:35;;;;;;;16.50;11.20;;;2.00;75.10;;;0.96;77.10;98402.81;5063633;28;20459;-73
2024/03/07 04:04:05;;;;;;;13.87;9.90;;;1.90;75.10;;;0.89;77.32;98404.38;5052526;28;20471;-74
2024/03/07 04:06:35;;;;;;;16.60;10.83;;;1.90;75.30;;;0.85;77.58;98419.78;5060974;28;20448;-76
2024/03/07 04:09:04;;;;;;;14.27;10.80;;;1.80;75.40;;;0.62;78.57;98416.59;5058069;28;20525;-75
2024/03/07 04:11:32;;;;;;;13.77;9.87;;;1.70;75.50;;;0.55;79.14;98406.53;5056700;28;20487;-76
2024/03/07 04:14:01;;;;;;;14.80;11.03;;;1.60;75.60;;;0.50;78.54;98414.09;5055127;28;20577;-75
2024/03/07 04:16:28;;;;;;;16.00;11.10;;;1.60;75.80;;;0.56;78.75;98413.53;5078209;28;20533;-73
2024/03/07 04:18:55;;;;;;;14.43;10.43;;;1.50;75.90;;;0.54;79.36;98418.16;5056265;28;20524;-75
2024/03/07 04:21:25;;;;;;;19.90;11.77;;;1.50;76.00;;;0.46;79.28;98418.00;5058876;28;20498;-75
2024/03/07 04:23:54;;;;;;;16.93;11.27;;;1.50;76.10;;;0.34;79.29;98408.50;5054659;28;20526;-75
2024/03/07 04:26:22;;;;;;;16.43;11.27;;;1.40;76.10;;;0.35;80.20;98418.16;5060002;28;20456;-75
2024/03/07 04:28:50;;;;;;;18.80;11.33;;;1.30;76.20;;;0.33;80.10;98418.31;5057729;28;20507;-76
2024/03/07 04:31:17;;;;;;;19.23;12.27;;;1.30;76.50;;;0.27;80.19;98414.38;5071958;28;20475;-75
2024/03/07 04:33:46;;;;;;;14.90;11.00;;;1.20;76.50;;;0.24;80.62;98419.13;5054491;28;20451;-73
2024/03/07 04:36:13;;;;;;;14.67;11.17;;;1.20;76.60;;;0.14;80.78;98425.28;5059043;28;20572;-74
2024/03/07 04:38:44;;;;;;;16.90;11.40;;;1.20;76.70;;;-0.01;81.23;98400.94;5069779;28;20975;-75
2024/03/07 04:41:15;;;;;;;22.10;12.33;;;1.20;76.80;;;0.26;80.77;98427.81;5080063;28;20527;-75
2024/03/07 04:43:43;;;;;;;16.97;12.03;;;1.20;77.20;;;0.21;80.93;98430.06;5059339;28;20522;-76
2024/03/07 04:46:10;;;;;;;18.83;11.60;;;1.20;76.90;;;0.30;80.55;98431.03;5066626;28;20975;-74
2024/03/07 04:48:38;;;;;;;17.63;12.47;;;1.20;76.90;;;0.27;80.42;98430.34;5065108;28;20459;-75
2024/03/07 04:51:08;;;;;;;20.07;13.07;;;1.20;76.90;;;0.25;80.62;98432.28;5061738;28;20624;-73
2024/03/07 04:53:41;;;;;;;15.63;11.30;;;1.10;77.10;;;0.10;80.96;98426.53;5061665;28;20506;-77
2024/03/07 04:56:10;;;;;;;17.30;11.87;;;1.10;77.10;;;0.19;81.35;98438.16;5084291;28;20438;-73
2024/03/07 04:58:39;;;;;;;16.60;11.80;;;1.10;77.30;;;0.31;81.71;98432.72;5055811;28;20473;-76
2024/03/07 05:01:06;;;;;;;14.50;10.83;;;1.10;77.80;;;0.42;81.27;98432.56;5068000;28;20454;-74
2024/03/07 05:03:33;;;;;;;19.30;11.20;;;1.10;77.80;;;0.37;81.42;98434.78;5067042;28;20493;-72
2024/03/07 05:06:00;;;;;;;21.33;11.53;;;1.20;77.50;;;0.38;80.68;98429.34;5063749;28;20454;-76
2024/03/07 05:08:27;;;;;;;19.80;12.90;;;1.30;77.50;;;0.47;80.46;98429.50;5073645;28;20517;-76
2024/03/07 05:10:55;;;;;;;19.40;12.00;;;1.30;77.30;;;0.57;79.62;98430.31;5069188;28;21345;-78
2024/03/07 05:13:24;;;;;;;14.93;11.57;;;1.40;77.10;;;0.59;79.10;98431.00;5061986;28;20464;-77
2024/03/07 05:15:53;;;;;;;17.43;11.77;;;1.50;76.90;;;0.62;79.49;98428.09;5060752;28;20449;-76
2024/03/07 05:18:20;;;;;;;16.77;12.90;;;1.50;77.00;;;0.82;78.37;98433.38;5063328;28;21014;-74
2024/03/07 05:20:47;;;;;;;16.40;11.77;;;1.70;76.50;;;0.77;79.08;98431.13;5058290;28;20454;-74
2024/03/07 05:23:14;;;;;;;18.60;13.33;;;1.60;76.50;;;0.77;78.74;98425.00;5058684;28;20444;-76
2024/03/07 05:25:42;;;;;;;14.30;11.10;;;1.70;76.40;;;0.79;78.81;98431.00;5080793;28;20444;-73
2024/03/07 05:28:09;;;;;;;18.60;12.47;;;1.60;76.50;;;0.91;79.22;98434.34;5080286;28;20460;-76
2024/03/07 05:30:38;;;;;;;18.13;12.27;;;1.70;77.00;;;0.98;77.81;98424.78;5074632;28;20473;-75
2024/03/07 05:33:07;;;;;;;18.63;12.43;;;1.80;76.40;;;0.42;78.10;98356.28;5065542;28;20476;-74
2024/03/07 05:35:37;;;;;;;17.93;12.30;;;1.80;76.20;;;1.12;79.49;98429.66;5064793;28;20461;-75
2024/03/07 05:38:05;;;;;;;20.07;13.23;;;2.00;77.60;;;1.08;79.21;98428.25;5051226;28;20961;-75
2024/03/07 05:40:33;;;;;;;18.13;11.87;;;1.90;77.00;;;1.21;78.94;98432.44;5069079;28;20456;-78
2024/03/07 05:43:01;;;;;;;18.10;12.70;;;2.00;77.00;;;1.21;78.65;98429.78;5057198;28;20975;-75
2024/03/07 05:45:28;;;;;;;21.30;12.70;;;2.00;76.80;;;1.17;78.02;98420.41;5067439;28;20454;-77
2024/03/07 05:47:56;;;;;;;16.40;11.90;;;2.00;76.70;;;1.17;77.63;98420.41;5043378;28;20539;-78
2024/03/07 05:50:25;;;;;;;15.67;11.30;;;2.00;76.30;;;1.35;77.50;98433.78;5056089;28;20467;-82
2024/03/07 05:52:52;;;;;;;18.00;12.17;;;2.10;76.50;;;1.46;77.45;98427.44;5062209;28;20495;-77
2024/03/07 05:55:22;;;;;;;18.03;12.70;;;2.20;76.40;;;1.30;77.51;98426.25;5069331;28;20461;-82
2024/03/07 05:57:49;;;;;;;18.27;12.30;;;2.20;75.90;;;1.38;77.38;98417.53;5069230;28;20452;-78
2024/03/07 06:00:26;;;;;;;16.13;11.70;;;2.30;76.20;;;1.44;77.89;98426.72;5064552;28;20464;-78
2024/03/07 06:02:55;;;;;;;17.97;13.33;;;2.20;76.50;;;1.55;78.04;98434.53;5064941;28;20891;-78
2024/03/07 06:05:26;;;;;;;17.80;11.23;;;2.30;76.60;;;1.37;77.83;98437.97;5065043;28;20940;-74
2024/03/07 06:07:54;;;;;;;16.90;12.03;;;2.20;76.30;;;1.54;77.71;98432.84;5065458;28;20452;-76
2024/03/07 06:10:23;;;;;;;17.27;11.23;;;2.40;76.60;;;1.54;77.02;98439.03;5065626;28;20548;-74
2024/03/07 06:12:51;;;;;;;17.33;11.73;;;2.40;75.80;;;1.48;76.90;98425.47;5063835;28;21022;-75
2024/03/07 06:15:20;;;;;;;15.77;12.23;;;2.40;76.10;;;1.48;75.97;98436.13;5067750;28;20460;-74
2024/03/07 06:17:48;;;;;;;16.70;11.60;;;2.40;75.90;;;0.96;76.76;98334.47;5058805;28;20456;-71
2024/03/07 06:20:22;;;;;;;16.00;11.67;;;2.40;76.10;;;1.70;75.68;98430.38;5030450;28;20461;-73
2024/03/07 06:22:54;;;;;;;19.00;12.10;;;2.60;75.70;;;2.15;75.63;98425.19;5074329;28;20483;-72
2024/03/07 06:25:33;;;;;;;17.33;11.80;;;2.80;76.10;;;2.20;73.94;98425.63;5077221;28;20447;-72
2024/03/07 06:28:08;;;;;;;18.57;11.83;;;3.00;75.30;;;2.12;74.03;98425.50;5069688;28;20459;-69
2024/03/07 06:30:37;;;;;;;17.57;12.37;;;3.00;74.50;;;2.14;73.27;98426.19;5058734;28;20471;-74
2024/03/07 06:33:05;;;;;;;17.90;12.07;;;3.00;74.00;;;2.23;73.10;98416.44;5063168;28;20573;-74
2024/03/07 06:35:35;;;;;;;15.90;11.80;;;3.10;74.10;;;2.53;72.45;98412.56;5062390;28;20955;-74
2024/03/07 06:38:08;;;;;;;18.67;12.07;;;3.30;74.00;;;2.37;72.49;98423.91;5061824;28;20455;-74
2024/03/07 06:40:36;;;;;;;17.83;12.77;;;3.30;73.90;;;2.63;72.76;98430.28;5058938;28;20452;-71
2024/03/07 06:43:06;;;;;;;17.20;13.13;;;3.40;73.90;;;2.73;71.42;98427.53;5060872;28;20521;-73
2024/03/07 06:45:33;;;;;;;16.97;12.40;;;3.60;73.40;;;2.70;71.55;98423.38;5038489;28;20464;-72
2024/03/07 06:48:01;;;;;;;19.33;13.63;;;3.60;73.20;;;2.87;71.03;98424.31;5056759;28;20492;-74
2024/03/07 06:50:29;;;;;;;17.60;13.07;;;3.70;73.00;;;2.88;71.04;98431.34;5054230;28;20482;-74
2024/03/07 06:52:56;;;;;;;20.07;14.57;;;3.70;72.90;;;2.86;71.08;98432.47;5056868;28;20480;-73
2024/03/07 06:55:30;;;;;;;21.23;13.83;;;3.60;72.60;;;2.66;71.39;98430.84;5075598;28;20464;-74
2024/03/07 06:57:59;;;;;;;20.37;13.10;;;3.60;72.90;;;1.97;71.55;98354.06;5059856;28;20547;-72
2024/03/07 07:00:27;;;;;;;17.73;12.20;;;3.50;72.60;;;2.56;71.65;98443.41;5056594;28;20990;-74
2024/03/07 07:02:57;;;;;;;16.97;13.17;;;3.40;72.70;;;2.60;72.29;98431.47;5052334;28;20472;-75
2024/03/07 07:05:24;;;;;;;24.10;14.60;;;3.40;73.00;;;2.69;71.42;98438.53;5066342;28;20450;-78
2024/03/07 07:07:52;;;;;;;23.47;13.20;;;3.60;72.80;;;2.63;71.46;98439.16;5048399;28;20460;-74
2024/03/07 07:10:20;;;;;;;18.97;15.27;;;3.50;72.70;;;2.46;71.73;98438.16;5056637;28;20461;-76
2024/03/07 07:12:49;;;;;;;19.00;14.60;;;3.50;72.60;;;2.23;72.53;98441.28;5059036;28;20403;-81
2024/03/07 07:15:20;;;;;;;21.20;17.30;;;3.30;72.40;;;2.29;72.15;98439.00;5054229;28;20446;-79
2024/03/07 07:17:49;;;;;;;19.60;14.47;;;3.20;72.60;;;2.40;72.40;98433.44;5058610;28;20200;-77
2024/03/07 07:20:17;;;;;;;18.20;13.97;;;3.30;73.00;;;2.52;72.49;98431.38;5058544;28;20460;-80
2024/03/07 07:22:47;;;;;;;18.67;14.27;;;3.30;73.00;;;2.46;72.11;98437.34;5054621;28;20512;-76
2024/03/07 07:25:15;;;;;;;17.57;12.67;;;3.40;72.80;;;2.58;71.70;98443.28;5052612;28;20478;-77
2024/03/07 07:27:45;;;;;;;19.13;13.87;;;3.30;72.80;;;2.68;71.86;98436.03;5059080;28;20475;-78
2024/03/07 07:30:16;;;;;;;18.97;15.03;;;3.40;72.60;;;2.64;72.20;98434.63;5055891;28;20459;-75
2024/03/07 07:32:45;;;;;;;22.17;15.10;;;3.40;72.90;;;2.54;72.26;98430.25;5047686;28;20484;-77
2024/03/07 07:35:13;;;;;;;23.50;15.40;;;3.50;72.70;;;2.51;72.38;98425.22;5052574;28;20469;-75
2024/03/07 07:37:40;;;;;;;19.97;14.70;;;3.40;72.70;;;2.70;71.90;98431.38;5058982;28;20515;-75
2024/03/07 07:40:12;;;;;;;21.33;14.20;;;3.40;73.40;;;2.88;71.83;98430.50;5058676;28;20459;-84
2024/03/07 07:42:41;;;;;;;22.27;15.73;;;3.60;73.10;;;2.65;73.63;98409.63;5066023;28;20557;-77
2024/03/07 07:45:11;;;;;;;20.60;14.07;;;3.60;73.80;;;2.78;71.97;98425.25;5045240;28;20464;-75
2024/03/07 07:47:41;;;;;;;22.60;15.10;;;3.60;73.10;;;2.73;72.47;98423.03;5060927;28;20487;-76
2024/03/07 07:50:12;;;;;;;25.90;15.00;;;3.60;73.10;;;2.74;72.49;98422.06;5070045;28;21024;-77
2024/03/07 07:52:43;;;;;;;21.53;14.63;;;3.70;73.30;;;2.85;72.74;98420.97;5050249;28;21026;-77
2024/03/07 07:55:14;;;;;;;21.93;15.13;;;3.80;73.50;;;2.73;72.70;98417.72;5054440;28;20446;-74
2024/03/07 07:57:44;;;;;;;23.60;15.63;;;3.70;73.20;;;3.07;72.49;98419.59;5059319;28;20462;-75
2024/03/07 08:00:21;;;;;;;22.10;14.97;;;3.80;73.50;;;3.10;72.15;98411.28;5050844;28;20480;-78
2024/03/07 08:02:57;;;;;;;20.13;15.20;;;3.90;73.30;;;3.33;72.56;98413.41;5072438;28;20478;-78
2024/03/07 08:05:27;;;;;;;25.50;15.47;;;4.10;73.60;;;3.53;70.81;98406.00;5070060;28;20452;-77
2024/03/07 08:07:57;;;;;;;20.53;14.20;;;4.30;73.10;;;3.53;71.33;98407.81;5059929;28;21320;-76
2024/03/07 08:10:28;;;;;;;22.20;14.57;;;4.40;72.80;;;3.38;71.06;98395.06;5056088;28;20472;-75
2024/03/07 08:12:56;;;;;;;21.00;14.40;;;4.40;73.20;;;3.61;71.16;98405.19;5054614;28;20533;-76
2024/03/07 08:15:23;;;;;;;20.43;15.60;;;4.50;72.90;;;3.42;71.48;98406.28;5077610;28;20449;-73
2024/03/07 08:17:51;;;;;;;22.30;15.13;;;4.40;72.80;;;3.81;71.05;98405.78;5076494;28;20453;-78
2024/03/07 08:20:22;;;;;;;20.50;15.00;;;4.60;73.40;;;3.79;71.08;98385.53;5062379;28;20993;-78
2024/03/07 08:22:52;;;;;;;21.73;15.23;;;4.70;73.10;;;3.74;71.16;98398.56;5080621;28;20461;-75
2024/03/07 08:25:21;;;;;;;21.20;15.27;;;4.70;73.10;;;3.74;72.26;98403.91;5072741;28;20528;-76
2024/03/07 08:27:50;;;;;;;19.17;14.00;;;4.70;73.30;;;4.05;70.98;98388.09;5061675;28;20457;-79
2024/03/07 08:30:18;;;;;;;23.00;15.17;;;4.90;73.40;;;4.16;70.68;98402.97;5079508;28;20448;-76
2024/03/07 08:32:47;;;;;;;23.03;15.03;;;5.00;73.20;;;4.34;70.00;98399.34;5059015;28;21401;-75
2024/03/07 08:35:16;;;;;;;21.03;14.53;;;5.10;73.10;;;4.73;69.05;98396.00;5072613;28;20446;-76
2024/03/07 08:37:46;;;;;;;21.67;14.53;;;5.40;73.00;;;4.90;68.08;98378.06;5049958;28;20464;-77
2024/03/07 08:40:19;;;;;;;20.83;15.30;;;5.70;72.60;;;5.33;67.81;98393.88;5058244;28;20449;-76
2024/03/07 08:42:47;;;;;;;17.70;13.00;;;6.00;72.40;;;5.60;66.85;98386.41;5079944;28;20452;-73
2024/03/07 08:45:17;;;;;;;20.87;14.73;;;6.30;72.00;;;5.97;65.49;98384.03;5058014;28;20471;-76
2024/03/07 08:47:45;;;;;;;19.60;14.37;;;6.60;71.30;;;6.05;64.63;98383.19;5060596;28;20464;-75
2024/03/07 08:50:13;;;;;;;19.50;15.00;;;6.80;70.50;;;5.96;65.17;98385.88;5056638;28;20541;-73
2024/03/07 08:52:42;;;;;;;20.40;13.73;;;6.90;70.70;;;6.05;64.20;98377.81;5060379;28;20479;-76
2024/03/07 08:55:15;;;;;;;19.10;13.47;;;6.90;69.80;;;5.62;65.38;98376.34;5070336;28;20948;-77
2024/03/07 08:57:44;;;;;;;18.13;14.90;;;6.80;69.90;;;6.24;64.65;98373.84;5069861;28;20451;-74
2024/03/07 09:00:22;;;;;;;21.90;15.40;;;7.00;70.50;;;6.44;63.86;98384.09;5067776;28;20474;-77
2024/03/07 09:02:52;;;;;;;17.13;13.20;;;7.20;69.50;;;6.56;62.91;98389.84;5057052;28;20458;-77
2024/03/07 09:05:21;;;;;;;21.60;14.07;;;7.40;69.00;;;6.49;63.36;98385.22;5058890;28;20464;-76
2024/03/07 09:07:49;;;;;;;18.50;13.70;;;7.40;68.70;;;6.50;62.74;98370.78;5062082;28;20484;-77
2024/03/07 09:10:20;;;;;;;16.73;13.60;;;7.40;68.30;;;6.20;63.69;98375.19;5069129;28;20448;-75
2024/03/07 09:12:51;;;;;;;17.67;13.63;;;7.20;68.30;;;6.44;63.79;98379.53;5072299;28;20474;-75
2024/03/07 09:15:21;;;;;;;17.73;12.90;;;7.20;68.80;;;6.01;63.85;98385.38;5077988;28;20468;-77
2024/03/07 09:17:49;;;;;;;20.77;14.53;;;7.00;68.40;;;6.06;64.21;98384.84;5077819;28;20973;-76
2024/03/07 09:20:18;;;;;;;20.07;14.77;;;7.00;69.10;;;6.21;63.56;98371.50;5062867;28;20483;-75
2024/03/07 09:22:47;;;;;;;18.03;15.23;;;7.10;68.60;;;6.20;63.81;98384.09;5058427;28;20464;-76
2024/03/07 09:25:14;;;;;;;18.53;13.67;;;7.10;68.60;;;6.38;63.48;98382.94;5062134;28;20821;-75
2024/03/07 09:27:43;;;;;;;16.40;12.57;;;7.20;68.50;;;6.28;63.52;98361.72;5079644;28;20560;-73
2024/03/07 09:30:14;;;;;;;14.73;12.70;;;7.30;68.40;;;6.77;62.61;98373.06;5061953;28;20460;-74
2024/03/07 09:32:42;;;;;;;19.03;15.03;;;7.40;68.10;;;6.85;62.15;98378.38;5071604;28;20471;-75
2024/03/07 09:35:13;;;;;;;17.47;13.70;;;7.60;67.60;;;6.64;62.37;98373.69;5055978;28;20456;-74
2024/03/07 09:37:41;;;;;;;19.00;14.37;;;7.60;67.50;;;7.04;61.47;98376.97;5070356;28;20552;-77
2024/03/07 09:40:11;;;;;;;16.97;13.20;;;7.70;67.70;;;7.26;61.05;98377.09;5072836;28;20437;-73
2024/03/07 09:42:47;;;;;;;18.13;13.77;;;7.90;67.30;;;6.93;61.69;98370.22;5066982;28;20445;-76
2024/03/07 09:45:22;;;;;;;16.97;13.43;;;7.90;66.80;;;7.08;61.71;98367.56;5053167;28;20472;-77
2024/03/07 09:47:51;;;;;;;18.20;13.13;;;7.90;67.00;;;7.24;60.38;98344.22;5061473;28;20952;-76
2024/03/07 09:50:21;;;;;;;16.77;12.27;;;8.10;66.80;;;7.43;59.74;98364.31;5058972;28;20441;-76
2024/03/07 09:52:50;;;;;;;17.37;13.20;;;8.10;66.10;;;6.90;60.29;98361.69;5059196;28;20469;-75
2024/03/07 09:55:19;;;;;;;17.10;13.47;;;7.90;65.50;;;6.61;62.38;98371.38;5056073;28;20451;-76
2024/03/07 09:57:50;;;;;;;20.23;13.20;;;7.60;66.40;;;6.99;61.27;98371.34;5072102;28;21273;-73
2024/03/07 10:00:24;;;;;;;19.57;13.43;;;7.70;66.60;;;7.06;61.02;98372.28;5052994;28;20453;-76
2024/03/07 10:02:57;;;;;;;19.60;13.60;;;7.80;66.30;;;7.19;60.38;98366.25;5059245;28;20468;-74
2024/03/07 10:05:27;;;;;;;16.80;13.40;;;8.00;66.20;;;6.89;60.73;98350.13;5054927;28;20451;-76
2024/03/07 10:07:55;;;;;;;16.73;14.03;;;7.90;65.90;;;6.96;61.36;98374.41;5054593;28;20450;-77
2024/03/07 10:10:22;;;;;;;16.90;13.60;;;7.80;65.80;;;7.12;61.67;98375.25;5054274;28;20569;-77
2024/03/07 10:12:53;;;;;;;17.27;12.57;;;7.80;66.50;;;7.49;59.69;98360.03;5054050;28;20464;-77
2024/03/07 10:15:21;;;;;;;17.47;12.57;;;8.10;66.30;;;7.50;59.48;98361.69;5055318;28;20458;-74
2024/03/07 10:17:48;;;;;;;16.43;12.80;;;8.30;65.40;;;7.74;58.18;98359.72;5054547;28;20454;-75
2024/03/07 10:20:20;;;;;;;17.00;13.17;;;8.40;64.90;;;8.00;58.01;98352.97;5081303;28;20827;-75
2024/03/07 10:22:48;;;;;;;15.23;12.47;;;8.70;64.90;;;7.58;56.78;98245.97;5062383;28;20451;-74
2024/03/07 10:25:21;;;;;;;15.83;13.00;;;8.90;64.30;;;8.08;57.49;98359.06;5058011;28;20482;-77
2024/03/07 10:27:49;;;;;;;16.67;13.50;;;8.90;63.90;;;8.35;57.29;98353.13;5077578;28;20458;-74